Time;durP1;ratioP1;P1;durP2;ratioP2;P2;SDS_P1;SDS_P2;PMS_P1;PMS_P2;Temp;Humidity;BMP_temperature;BMP_pressure;BME280_temperature;BME280_humidity;BME280_pressure;Samples;Min_cycle;Max_cycle;Signal;HPM_P1;HPM_P2
2022/04/25 00:00:58;;;;;;;1.98;1.13;;;;;;;;;;4994008;28;20054;-67
2022/04/25 00:03:25;;;;;;;2.20;0.90;;;;;;;;;;4994612;28;20056;-66
2022/04/25 00:05:52;;;;;;;2.15;1.00;;;;;;;;;;4994727;28;20474;-67
2022/04/25 00:08:19;;;;;;;2.03;1.02;;;;;;;;;;4994266;28;20050;-66
2022/04/25 00:10:47;;;;;;;1.88;1.10;;;;;;;;;;4994184;28;20056;-67
2022/04/25 00:13:14;;;;;;;2.05;1.00;;;;;;;;;;4994382;28;20054;-67
2022/04/25 00:15:41;;;;;;;1.20;0.80;;;;;;;;;;4994307;28;20487;-67
2022/04/25 00:18:10;;;;;;;1.67;1.00;;;;;;;;;;4994255;28;20181;-67
2022/04/25 00:20:37;;;;;;;2.05;0.90;;;;;;;;;;4993831;28;20054;-67
2022/04/25 00:23:05;;;;;;;1.60;0.88;;;;;;;;;;4994153;28;20430;-66
2022/04/25 00:25:33;;;;;;;3.60;1.00;;;;;;;;;;4994346;28;20157;-67
2022/04/25 00:28:00;;;;;;;2.15;0.90;;;;;;;;;;4994328;28;20149;-66
2022/04/25 00:30:28;;;;;;;2.08;0.85;;;;;;;;;;4994013;28;20065;-67
2022/04/25 00:32:56;;;;;;;2.00;1.00;;;;;;;;;;4994157;28;20134;-67
2022/04/25 00:35:25;;;;;;;3.10;0.90;;;;;;;;;;4993929;28;20053;-67
2022/04/25 00:37:53;;;;;;;1.77;0.90;;;;;;;;;;4994195;28;20519;-66
2022/04/25 00:40:20;;;;;;;1.02;0.80;;;;;;;;;;4993856;28;20141;-67
2022/04/25 00:42:48;;;;;;;1.77;0.73;;;;;;;;;;4994577;28;20077;-67
2022/04/25 00:45:15;;;;;;;1.20;0.70;;;;;;;;;;4994537;28;20058;-67
2022/04/25 00:47:44;;;;;;;1.92;1.00;;;;;;;;;;4993886;28;20050;-67
2022/04/25 00:50:12;;;;;;;1.50;0.80;;;;;;;;;;5012705;23;20068;-75
2022/04/25 00:52:40;;;;;;;1.80;0.98;;;;;;;;;;5009133;28;20065;-76
2022/04/25 00:55:09;;;;;;;1.35;0.80;;;;;;;;;;5013227;28;20053;-77
2022/04/25 00:57:37;;;;;;;1.38;0.80;;;;;;;;;;5012494;28;20056;-76
2022/04/25 01:00:07;;;;;;;1.40;0.70;;;;;;;;;;5012049;28;20339;-76
2022/04/25 01:02:34;;;;;;;2.37;0.97;;;;;;;;;;5013172;28;20054;-77
2022/04/25 01:05:01;;;;;;;1.17;0.80;;;;;;;;;;5012753;28;20291;-76
2022/04/25 01:07:28;;;;;;;1.73;1.08;;;;;;;;;;5012925;28;20049;-77
2022/04/25 01:09:56;;;;;;;1.50;0.80;;;;;;;;;;5014986;28;20053;-78
2022/04/25 01:12:23;;;;;;;1.42;0.90;;;;;;;;;;5019175;28;20050;-75
2022/04/25 01:14:56;;;;;;;1.67;0.80;;;;;;;;;;5012543;28;20054;-76
2022/04/25 01:17:23;;;;;;;1.60;0.98;;;;;;;;;;5012529;28;20045;-76
2022/04/25 01:19:50;;;;;;;1.48;0.90;;;;;;;;;;5013742;28;20104;-77
2022/04/25 01:22:22;;;;;;;1.50;0.80;;;;;;;;;;5012786;28;20132;-76
2022/04/25 01:27:34;;;;;;;1.17;0.77;;;;;;;;;;5012668;28;20143;-76
2022/04/25 01:30:03;;;;;;;1.73;1.00;;;;;;;;;;5012674;28;20062;-75
2022/04/25 01:32:30;;;;;;;1.63;0.85;;;;;;;;;;5012207;28;20180;-75
2022/04/25 01:34:57;;;;;;;2.00;0.88;;;;;;;;;;5012115;28;20045;-76
2022/04/25 01:37:24;;;;;;;2.13;0.90;;;;;;;;;;5012065;28;20417;-76
2022/04/25 01:39:54;;;;;;;2.30;0.90;;;;;;;;;;5012225;28;20112;-77
2022/04/25 01:42:22;;;;;;;1.95;1.13;;;;;;;;;;5012065;28;20524;-76
2022/04/25 01:44:49;;;;;;;1.70;0.93;;;;;;;;;;5011915;28;20053;-77
2022/04/25 01:47:16;;;;;;;2.13;1.13;;;;;;;;;;5011782;28;20053;-76
2022/04/25 01:49:43;;;;;;;2.33;1.20;;;;;;;;;;5011956;28;20108;-75
2022/04/25 01:52:18;;;;;;;2.15;1.00;;;;;;;;;;5014162;28;20543;-76
2022/04/25 01:54:45;;;;;;;1.98;1.10;;;;;;;;;;5015746;28;20049;-76
2022/04/25 01:57:13;;;;;;;2.42;1.20;;;;;;;;;;5015653;28;20505;-76
2022/04/25 01:59:40;;;;;;;1.88;0.90;;;;;;;;;;5015544;28;20049;-76
2022/04/25 02:02:07;;;;;;;2.50;1.20;;;;;;;;;;5015360;28;20477;-76
2022/04/25 02:04:34;;;;;;;2.90;1.40;;;;;;;;;;5015536;28;20189;-76
2022/04/25 02:07:01;;;;;;;2.00;1.10;;;;;;;;;;5015632;28;20058;-76
2022/04/25 02:09:28;;;;;;;2.03;1.00;;;;;;;;;;5015531;28;20551;-76
2022/04/25 02:11:55;;;;;;;1.60;0.93;;;;;;;;;;5015492;28;20053;-76
2022/04/25 02:14:23;;;;;;;2.38;1.38;;;;;;;;;;5015524;28;20551;-76
2022/04/25 02:16:50;;;;;;;2.28;1.10;;;;;;;;;;5015169;28;20050;-76
2022/04/25 02:19:16;;;;;;;2.33;1.40;;;;;;;;;;5015246;28;20053;-76
2022/04/25 02:21:43;;;;;;;2.28;1.10;;;;;;;;;;5015629;28;20046;-76
2022/04/25 02:24:10;;;;;;;2.17;1.20;;;;;;;;;;5015471;28;20057;-76
2022/04/25 02:26:37;;;;;;;1.50;1.00;;;;;;;;;;5015428;28;20050;-77
2022/04/25 02:29:04;;;;;;;2.70;1.30;;;;;;;;;;5016203;28;20057;-76
2022/04/25 02:31:32;;;;;;;1.98;1.13;;;;;;;;;;5016046;28;20053;-76
2022/04/25 02:33:59;;;;;;;2.15;1.30;;;;;;;;;;5015488;28;20468;-76
2022/04/25 02:36:25;;;;;;;4.15;1.50;;;;;;;;;;5015020;28;20444;-77
2022/04/25 02:38:52;;;;;;;2.65;1.38;;;;;;;;;;5015441;28;20112;-77
2022/04/25 02:41:19;;;;;;;2.22;1.30;;;;;;;;;;5016324;28;20096;-76
2022/04/25 02:43:46;;;;;;;2.70;1.30;;;;;;;;;;5038176;28;20040;-78
2022/04/25 02:46:14;;;;;;;2.58;1.33;;;;;;;;;;5027496;28;20140;-77
2022/04/25 02:48:44;;;;;;;2.13;1.23;;;;;;;;;;4995773;28;20108;-78
2022/04/25 02:51:12;;;;;;;3.03;1.48;;;;;;;;;;4995463;28;20042;-77
2022/04/25 02:53:39;;;;;;;2.75;1.40;;;;;;;;;;4995326;28;20050;-76
2022/04/25 02:56:07;;;;;;;3.38;1.58;;;;;;;;;;4995257;28;20124;-76
2022/04/25 02:58:35;;;;;;;3.30;1.52;;;;;;;;;;4995217;28;20046;-76
2022/04/25 03:01:05;;;;;;;2.72;1.40;;;;;;;;;;4994949;28;20046;-75
2022/04/25 03:03:33;;;;;;;2.40;1.30;;;;;;;;;;4994353;28;20234;-75
2022/04/25 03:06:02;;;;;;;2.92;1.55;;;;;;;;;;4995015;28;20050;-75
2022/04/25 03:08:30;;;;;;;1.70;1.10;;;;;;;;;;4994991;28;20050;-75
2022/04/25 03:10:57;;;;;;;3.40;1.50;;;;;;;;;;4994989;28;20545;-76
2022/04/25 03:13:25;;;;;;;3.47;1.67;;;;;;;;;;4994978;28;20046;-75
2022/04/25 03:15:52;;;;;;;3.53;1.35;;;;;;;;;;4994608;28;20137;-75
2022/04/25 03:18:21;;;;;;;2.95;1.42;;;;;;;;;;4995109;28;20104;-75
2022/04/25 03:20:50;;;;;;;3.67;1.40;;;;;;;;;;4994897;28;20108;-76
2022/04/25 03:23:18;;;;;;;2.28;1.20;;;;;;;;;;4994597;28;20049;-76
2022/04/25 03:25:46;;;;;;;3.53;1.65;;;;;;;;;;4994933;28;20054;-76
2022/04/25 03:28:13;;;;;;;2.38;1.30;;;;;;;;;;4994836;28;20065;-76
2022/04/25 03:30:41;;;;;;;2.90;1.38;;;;;;;;;;4996894;28;20053;-75
2022/04/25 03:33:11;;;;;;;3.85;1.77;;;;;;;;;;4995287;28;20054;-76
2022/04/25 03:35:38;;;;;;;2.60;1.40;;;;;;;;;;4994431;28;20533;-76
2022/04/25 03:38:06;;;;;;;3.70;1.38;;;;;;;;;;4994572;28;20276;-76
2022/04/25 03:40:35;;;;;;;3.75;1.60;;;;;;;;;;4994513;28;20137;-76
2022/04/25 03:43:01;;;;;;;2.70;1.42;;;;;;;;;;4994661;28;20057;-76
2022/04/25 03:45:28;;;;;;;3.47;1.45;;;;;;;;;;4995196;28;20054;-76
2022/04/25 03:47:56;;;;;;;3.25;1.75;;;;;;;;;;4994643;28;20050;-76
2022/04/25 03:50:23;;;;;;;3.83;1.73;;;;;;;;;;4994353;28;20053;-76
2022/04/25 03:52:50;;;;;;;3.70;1.63;;;;;;;;;;4994448;28;20101;-76
2022/04/25 03:58:05;;;;;;;4.07;1.90;;;;;;;;;;4993996;28;20128;-76
2022/04/25 04:00:33;;;;;;;4.37;2.20;;;;;;;;;;4993892;28;20141;-76
2022/04/25 04:03:00;;;;;;;4.07;1.90;;;;;;;;;;4994251;28;20113;-76
2022/04/25 04:05:27;;;;;;;3.55;2.08;;;;;;;;;;4993841;28;20485;-76
2022/04/25 04:07:54;;;;;;;3.88;1.88;;;;;;;;;;4993942;28;20051;-76
2022/04/25 04:10:22;;;;;;;4.47;2.20;;;;;;;;;;4993657;28;20506;-76
2022/04/25 04:12:49;;;;;;;3.90;2.00;;;;;;;;;;4993873;28;20105;-76
2022/04/25 04:15:17;;;;;;;4.00;2.17;;;;;;;;;;4993512;28;20061;-75
2022/04/25 04:17:45;;;;;;;5.05;2.78;;;;;;;;;;4993778;28;20074;-76
2022/04/25 04:20:13;;;;;;;4.65;2.30;;;;;;;;;;4993856;28;20051;-75
2022/04/25 04:22:40;;;;;;;5.60;3.00;;;;;;;;;;4993734;28;20464;-75
2022/04/25 04:25:09;;;;;;;7.43;2.80;;;;;;;;;;4993168;28;20560;-76
2022/04/25 04:27:36;;;;;;;4.88;2.58;;;;;;;;;;4993908;28;20112;-76
2022/04/25 04:30:06;;;;;;;5.60;2.75;;;;;;;;;;4993460;28;20050;-76
2022/04/25 04:32:35;;;;;;;5.07;2.72;;;;;;;;;;4994276;28;20135;-76
2022/04/25 04:35:03;;;;;;;5.82;3.33;;;;;;;;;;4993884;28;20058;-76
2022/04/25 04:37:30;;;;;;;6.25;3.33;;;;;;;;;;4994689;28;20076;-76
2022/04/25 04:42:37;;;;;;;6.00;3.13;;;;;;;;;;4993367;28;20390;-75
2022/04/25 04:45:11;;;;;;;6.15;3.88;;;;;;;;;;4993150;28;20108;-76
2022/04/25 04:47:41;;;;;;;6.32;3.60;;;;;;;;;;4993295;28;20497;-76
2022/04/25 04:50:10;;;;;;;6.93;3.95;;;;;;;;;;4993525;28;20047;-76
2022/04/25 04:52:37;;;;;;;7.55;4.57;;;;;;;;;;4993114;28;20047;-76
2022/04/25 04:55:05;;;;;;;7.18;4.13;;;;;;;;;;4993407;28;20058;-76
2022/04/25 04:57:31;;;;;;;7.40;4.03;;;;;;;;;;4993285;28;20069;-75
2022/04/25 04:59:58;;;;;;;7.15;3.70;;;;;;;;;;5011263;28;20112;-76
2022/04/25 05:02:25;;;;;;;8.23;4.10;;;;;;;;;;5017948;28;20039;-77
2022/04/25 05:04:56;;;;;;;7.57;4.22;;;;;;;;;;5006670;28;20054;-76
2022/04/25 05:07:23;;;;;;;7.35;4.00;;;;;;;;;;4993477;28;20493;-76
2022/04/25 05:09:51;;;;;;;8.00;3.95;;;;;;;;;;4993379;28;20050;-76
2022/04/25 05:12:18;;;;;;;6.82;4.35;;;;;;;;;;4992834;28;20050;-76
2022/04/25 05:14:45;;;;;;;8.05;4.50;;;;;;;;;;4992681;28;20050;-76
2022/04/25 05:17:11;;;;;;;7.63;3.95;;;;;;;;;;4993226;28;20061;-76
2022/04/25 05:19:38;;;;;;;8.07;4.50;;;;;;;;;;4992604;28;20046;-76
2022/04/25 05:22:06;;;;;;;8.30;4.85;;;;;;;;;;4992736;28;20086;-76
2022/04/25 05:24:35;;;;;;;8.05;5.18;;;;;;;;;;4992845;28;20407;-76
2022/04/25 05:27:02;;;;;;;9.60;5.43;;;;;;;;;;4992145;28;20145;-76
2022/04/25 05:29:32;;;;;;;10.30;5.28;;;;;;;;;;4992519;28;20050;-76
2022/04/25 05:31:59;;;;;;;9.18;5.10;;;;;;;;;;4992759;28;20501;-76
2022/04/25 05:34:26;;;;;;;10.73;6.00;;;;;;;;;;4992489;28;20047;-76
2022/04/25 05:36:53;;;;;;;10.02;5.68;;;;;;;;;;4992654;28;20081;-76
2022/04/25 05:39:21;;;;;;;11.20;5.85;;;;;;;;;;4992502;28;20053;-76
2022/04/25 05:41:48;;;;;;;11.45;6.75;;;;;;;;;;4992763;28;20046;-75
2022/04/25 05:44:15;;;;;;;10.77;6.72;;;;;;;;;;4992916;28;20054;-75
2022/04/25 05:46:42;;;;;;;10.27;5.75;;;;;;;;;;4992247;28;20061;-76
2022/04/25 05:52:05;;;;;;;10.55;6.53;;;;;;;;;;4952993;29;20142;-78
2022/04/25 05:54:34;;;;;;;11.75;7.55;;;;;;;;;;4986944;28;20061;-79
2022/04/25 05:57:01;;;;;;;13.75;7.43;;;;;;;;;;4998918;28;20090;-76
2022/04/25 05:59:29;;;;;;;15.52;8.77;;;;;;;;;;5003259;28;20101;-78
2022/04/25 06:01:57;;;;;;;13.70;8.07;;;;;;;;;;5004509;28;20043;-77
2022/04/25 06:04:24;;;;;;;14.77;8.18;;;;;;;;;;5000792;28;20077;-78
2022/04/25 06:06:50;;;;;;;14.48;8.48;;;;;;;;;;4993384;28;20054;-76
2022/04/25 06:09:19;;;;;;;15.65;9.35;;;;;;;;;;4992476;28;20043;-77
2022/04/25 06:11:49;;;;;;;16.08;9.80;;;;;;;;;;4992367;28;20517;-76
2022/04/25 06:14:17;;;;;;;13.95;8.43;;;;;;;;;;4992736;28;20082;-75
2022/04/25 06:16:43;;;;;;;16.90;10.07;;;;;;;;;;4992672;28;20082;-77
2022/04/25 06:19:11;;;;;;;18.52;10.90;;;;;;;;;;4992365;28;20050;-77
2022/04/25 06:21:38;;;;;;;19.15;11.60;;;;;;;;;;4992081;28;20548;-77
2022/04/25 06:24:05;;;;;;;18.65;11.63;;;;;;;;;;4992573;28;20120;-78
2022/04/25 06:26:34;;;;;;;22.42;12.57;;;;;;;;;;4991978;28;20051;-79
2022/04/25 06:29:02;;;;;;;23.45;14.55;;;;;;;;;;4991904;28;20046;-78
2022/04/25 06:31:29;;;;;;;22.38;13.35;;;;;;;;;;4991795;28;20053;-78
2022/04/25 06:33:55;;;;;;;20.58;13.00;;;;;;;;;;4992625;28;20050;-78
2022/04/25 06:36:22;;;;;;;21.45;13.05;;;;;;;;;;4992229;28;20112;-76
2022/04/25 06:38:49;;;;;;;23.02;14.32;;;;;;;;;;4993926;28;20066;-76
2022/04/25 06:41:16;;;;;;;22.13;14.45;;;;;;;;;;4995627;28;20092;-76
2022/04/25 06:43:43;;;;;;;21.88;13.48;;;;;;;;;;4995479;28;20190;-76
2022/04/25 06:46:11;;;;;;;21.38;13.60;;;;;;;;;;4985881;28;20449;-76
2022/04/25 06:48:38;;;;;;;22.85;14.57;;;;;;;;;;4975376;28;20080;-77
2022/04/25 06:51:05;;;;;;;21.67;14.10;;;;;;;;;;4975533;28;20130;-76
2022/04/25 06:53:31;;;;;;;22.75;14.13;;;;;;;;;;4976253;28;20109;-75
2022/04/25 06:55:58;;;;;;;21.15;13.60;;;;;;;;;;4975576;28;20089;-75
2022/04/25 06:58:26;;;;;;;19.98;13.55;;;;;;;;;;4975546;28;20122;-75
2022/04/25 07:00:53;;;;;;;17.67;11.65;;;;;;;;;;4975059;28;20058;-76
2022/04/25 07:03:22;;;;;;;21.13;13.00;;;;;;;;;;4975698;28;20486;-75
2022/04/25 07:05:52;;;;;;;21.38;14.05;;;;;;;;;;4974987;28;20133;-75
2022/04/25 07:08:19;;;;;;;24.48;12.95;;;;;;;;;;4976593;28;20046;-78
2022/04/25 07:10:46;;;;;;;18.25;12.82;;;;;;;;;;4977039;28;20059;-77
2022/04/25 07:13:14;;;;;;;19.65;12.40;;;;;;;;;;4974800;28;20391;-77
2022/04/25 07:15:40;;;;;;;20.83;13.32;;;;;;;;;;4976418;28;20119;-77
2022/04/25 07:18:07;;;;;;;19.95;12.95;;;;;;;;;;4978419;28;20051;-77
2022/04/25 07:20:36;;;;;;;21.42;13.68;;;;;;;;;;4978149;28;20569;-76
2022/04/25 07:28:52;;;;;;;19.48;12.25;;;;;;;;;;4974046;28;20061;-76
2022/04/25 07:31:32;;;;;;;17.70;12.48;;;;;;;;;;4987891;28;20038;-76
2022/04/25 07:33:59;;;;;;;19.85;12.65;;;;;;;;;;4999574;28;20038;-78
2022/04/25 07:36:28;;;;;;;20.58;13.02;;;;;;;;;;4990530;28;20061;-77
2022/04/25 07:38:55;;;;;;;20.45;13.30;;;;;;;;;;4975190;28;20043;-77
2022/04/25 07:41:27;;;;;;;21.77;13.90;;;;;;;;;;4973136;28;20102;-76
2022/04/25 07:43:54;;;;;;;22.23;14.18;;;;;;;;;;4979295;28;20046;-77
2022/04/25 07:46:23;;;;;;;21.40;13.77;;;;;;;;;;4992638;28;20054;-78
2022/04/25 07:48:51;;;;;;;20.73;13.80;;;;;;;;;;4992313;28;20050;-77
2022/04/25 07:51:19;;;;;;;23.00;13.65;;;;;;;;;;4992588;28;20130;-77
2022/04/25 07:53:47;;;;;;;21.60;14.70;;;;;;;;;;4992549;28;20053;-77
2022/04/25 07:56:14;;;;;;;19.50;12.40;;;;;;;;;;4992235;28;20061;-78
2022/04/25 07:58:41;;;;;;;20.65;13.27;;;;;;;;;;4992052;28;20054;-78
2022/04/25 08:01:08;;;;;;;20.40;12.45;;;;;;;;;;4992071;28;20062;-77
2022/04/25 08:03:35;;;;;;;18.60;13.43;;;;;;;;;;4992027;28;20057;-77
2022/04/25 08:06:01;;;;;;;19.58;12.38;;;;;;;;;;4991765;28;20078;-77
2022/04/25 08:08:28;;;;;;;20.42;13.23;;;;;;;;;;4991819;28;20053;-76
2022/04/25 08:10:56;;;;;;;20.88;13.57;;;;;;;;;;4991813;28;20091;-76
2022/04/25 08:18:52;;;;;;;20.45;14.20;;;;;;;;;;4992255;28;20528;-76
2022/04/25 08:21:19;;;;;;;22.48;14.07;;;;;;;;;;4992037;28;20636;-77
2022/04/25 08:23:46;;;;;;;20.73;13.07;;;;;;;;;;4991778;28;20054;-77
2022/04/25 08:26:14;;;;;;;20.95;12.73;;;;;;;;;;4994012;28;20049;-76
2022/04/25 08:28:41;;;;;;;22.35;13.05;;;;;;;;;;4994747;28;20501;-77
2022/04/25 08:31:10;;;;;;;20.52;12.90;;;;;;;;;;4994208;28;20046;-77
2022/04/25 08:33:37;;;;;;;21.08;13.13;;;;;;;;;;4993393;28;20125;-77
2022/04/25 08:36:04;;;;;;;18.13;12.50;;;;;;;;;;4993985;28;20509;-76
2022/04/25 08:38:31;;;;;;;21.00;13.80;;;;;;;;;;4993504;28;20050;-77
2022/04/25 08:40:59;;;;;;;20.92;14.38;;;;;;;;;;4993231;28;20050;-77
2022/04/25 08:43:30;;;;;;;19.42;12.43;;;;;;;;;;4993515;28;20567;-77
2022/04/25 08:45:58;;;;;;;21.17;13.50;;;;;;;;;;4985851;28;20046;-77
2022/04/25 08:48:25;;;;;;;19.50;13.77;;;;;;;;;;4972234;28;20055;-77
2022/04/25 08:50:53;;;;;;;23.48;14.50;;;;;;;;;;4971913;28;20141;-77
2022/04/25 08:53:21;;;;;;;20.48;12.95;;;;;;;;;;4971988;28;20388;-77
2022/04/25 08:55:50;;;;;;;21.27;13.27;;;;;;;;;;4972637;28;20106;-76
2022/04/25 08:58:19;;;;;;;17.75;12.43;;;;;;;;;;4972276;28;20062;-78
2022/04/25 09:00:47;;;;;;;16.35;11.25;;;;;;;;;;4971172;28;20058;-76
2022/04/25 09:03:14;;;;;;;18.13;12.15;;;;;;;;;;4970675;28;20047;-76
2022/04/25 09:05:41;;;;;;;19.65;13.70;;;;;;;;;;4971892;28;20051;-78
2022/04/25 09:08:08;;;;;;;20.08;12.65;;;;;;;;;;4972647;28;20561;-77
2022/04/25 09:10:36;;;;;;;22.40;12.73;;;;;;;;;;4972949;28;20046;-77
2022/04/25 09:13:03;;;;;;;22.85;15.80;;;;;;;;;;4972804;28;20057;-78
2022/04/25 09:15:31;;;;;;;21.15;13.82;;;;;;;;;;4971779;28;20043;-78
2022/04/25 09:17:59;;;;;;;22.23;14.10;;;;;;;;;;4971823;28;20042;-77
2022/04/25 09:20:27;;;;;;;21.85;13.50;;;;;;;;;;4971434;28;20610;-78
2022/04/25 09:22:54;;;;;;;22.60;15.05;;;;;;;;;;4971674;28;20129;-77
2022/04/25 09:25:21;;;;;;;21.90;13.95;;;;;;;;;;4971429;28;20058;-78
2022/04/25 09:27:48;;;;;;;21.38;14.02;;;;;;;;;;4972184;28;20565;-76
2022/04/25 09:30:18;;;;;;;22.52;13.52;;;;;;;;;;4971981;28;20049;-77
2022/04/25 09:32:45;;;;;;;21.88;14.02;;;;;;;;;;4972125;28;20051;-77
2022/04/25 09:35:44;;;;;;;21.33;14.63;;;;;;;;;;4972143;28;20470;-78
2022/04/25 09:38:10;;;;;;;21.25;13.50;;;;;;;;;;4911918;29;20656;-78
2022/04/25 09:40:40;;;;;;;21.15;13.35;;;;;;;;;;4957649;28;20109;-77
2022/04/25 09:43:11;;;;;;;19.38;12.82;;;;;;;;;;4972259;28;20086;-77
2022/04/25 09:45:41;;;;;;;17.90;11.98;;;;;;;;;;4976066;28;20053;-77
2022/04/25 09:48:12;;;;;;;22.88;14.95;;;;;;;;;;4991375;28;20050;-76
2022/04/25 09:50:39;;;;;;;23.13;14.77;;;;;;;;;;4990435;28;20112;-77
2022/04/25 09:53:10;;;;;;;21.67;15.07;;;;;;;;;;4990691;28;20049;-77
2022/04/25 09:55:39;;;;;;;20.73;13.77;;;;;;;;;;4990305;28;20132;-76
2022/04/25 09:58:20;;;;;;;24.73;14.63;;;;;;;;;;4991177;28;20054;-78
2022/04/25 10:00:49;;;;;;;22.23;15.27;;;;;;;;;;4990122;28;20050;-79
2022/04/25 10:03:17;;;;;;;22.38;13.93;;;;;;;;;;4974562;28;20105;-77
2022/04/25 10:05:47;;;;;;;20.45;13.32;;;;;;;;;;4972940;28;20053;-78
2022/04/25 10:08:16;;;;;;;22.42;14.45;;;;;;;;;;4973160;28;20047;-76
2022/04/25 10:10:48;;;;;;;22.10;14.70;;;;;;;;;;4973339;28;20105;-77
2022/04/25 10:13:15;;;;;;;22.52;15.02;;;;;;;;;;4975630;28;20097;-77
2022/04/25 10:15:43;;;;;;;20.17;13.40;;;;;;;;;;4976653;28;20117;-78
2022/04/25 10:18:10;;;;;;;20.13;14.38;;;;;;;;;;4976596;28;20054;-78
2022/04/25 10:20:38;;;;;;;20.50;13.45;;;;;;;;;;4976176;28;20063;-77
2022/04/25 10:23:06;;;;;;;19.48;14.05;;;;;;;;;;4976704;28;20109;-77
2022/04/25 10:25:36;;;;;;;20.50;13.60;;;;;;;;;;4976049;28;20054;-77
2022/04/25 10:28:06;;;;;;;22.92;15.05;;;;;;;;;;4976769;28;20058;-77
2022/04/25 10:30:35;;;;;;;23.17;15.15;;;;;;;;;;4977166;28;20046;-77
2022/04/25 10:33:16;;;;;;;21.88;13.88;;;;;;;;;;4977928;28;20058;-77
2022/04/25 10:35:43;;;;;;;21.33;13.35;;;;;;;;;;4977135;28;20072;-78
2022/04/25 10:38:51;;;;;;;20.98;13.50;;;;;;;;;;4977917;28;20457;-77
2022/04/25 10:44:50;;;;;;;20.10;12.73;;;;;;;;;;4977539;28;20189;-77
2022/04/25 10:47:18;;;;;;;18.27;12.18;;;;;;;;;;4994487;28;20094;-77
2022/04/25 10:49:46;;;;;;;19.92;12.88;;;;;;;;;;4995290;28;20481;-76
2022/04/25 10:53:01;;;;;;;18.95;12.52;;;;;;;;;;4995432;28;20129;-77
2022/04/25 10:55:46;;;;;;;19.33;13.10;;;;;;;;;;4995357;28;20046;-77
2022/04/25 10:58:23;;;;;;;18.52;12.15;;;;;;;;;;4995795;28;20058;-77
2022/04/25 11:00:55;;;;;;;17.92;12.20;;;;;;;;;;4995219;28;20055;-76
2022/04/25 11:03:29;;;;;;;17.30;11.93;;;;;;;;;;4995459;28;20043;-77
2022/04/25 11:05:58;;;;;;;15.75;11.20;;;;;;;;;;4995488;28;20047;-76
2022/04/25 11:08:33;;;;;;;17.23;12.07;;;;;;;;;;4996978;28;20476;-77
2022/04/25 11:11:16;;;;;;;18.88;12.68;;;;;;;;;;4996318;28;20056;-77
2022/04/25 11:14:16;;;;;;;16.77;12.27;;;;;;;;;;4998136;28;20490;-78
2022/04/25 11:16:44;;;;;;;17.60;11.40;;;;;;;;;;4999712;28;20477;-78
2022/04/25 11:19:14;;;;;;;17.55;10.63;;;;;;;;;;4999667;28;20101;-76
2022/04/25 11:21:47;;;;;;;13.73;9.98;;;;;;;;;;4996558;28;20051;-76
2022/04/25 11:24:38;;;;;;;15.35;11.05;;;;;;;;;;4995938;28;20745;-76
2022/04/25 11:27:09;;;;;;;17.92;12.82;;;;;;;;;;4996491;28;20050;-76
2022/04/25 11:29:45;;;;;;;20.05;14.13;;;;;;;;;;4998701;28;20059;-77
2022/04/25 11:32:35;;;;;;;19.73;13.77;;;;;;;;;;5002343;28;20187;-77
2022/04/25 11:35:03;;;;;;;;;;;;;;;;;;5003231;28;20057;-76
2022/04/25 11:37:32;;;;;;;18.23;13.38;;;;;;;;;;5003754;28;19952;-78
2022/04/25 11:40:00;;;;;;;18.55;12.93;;;;;;;;;;5000819;28;20081;-78
2022/04/25 11:42:29;;;;;;;18.50;12.70;;;;;;;;;;5000910;28;20109;-78
2022/04/25 11:44:58;;;;;;;19.45;12.93;;;;;;;;;;5001244;28;20058;-78
2022/04/25 11:47:25;;;;;;;17.02;12.00;;;;;;;;;;4997100;28;20517;-78
2022/04/25 11:50:02;;;;;;;18.98;12.95;;;;;;;;;;4996427;28;20054;-77
2022/04/25 11:52:29;;;;;;;17.88;12.63;;;;;;;;;;4995036;28;20073;-77
2022/04/25 11:54:56;;;;;;;18.95;12.43;;;;;;;;;;4994395;28;20043;-76
2022/04/25 11:57:25;;;;;;;15.93;11.35;;;;;;;;;;4994697;28;20046;-76
2022/04/25 12:02:45;;;;;;;16.15;11.80;;;;;;;;;;5163777;27;20127;-63
2022/04/25 12:05:14;;;;;;;16.10;11.43;;;;;;;;;;5130422;27;20062;-66
2022/04/25 12:15:55;;;;;;;15.18;10.70;;;;;;;;;;5128069;28;20054;-65
2022/04/25 12:18:26;;;;;;;17.63;13.07;;;;;;;;;;5128199;27;20443;-64
2022/04/25 12:21:00;;;;;;;17.58;12.52;;;;;;;;;;5127663;27;20043;-64
2022/04/25 12:23:29;;;;;;;18.40;12.18;;;;;;;;;;5128080;27;20054;-64
2022/04/25 12:25:56;;;;;;;17.67;13.57;;;;;;;;;;5127946;27;20470;-63
2022/04/25 12:28:26;;;;;;;17.17;12.30;;;;;;;;;;5127587;27;20047;-64
2022/04/25 12:30:55;;;;;;;19.83;13.70;;;;;;;;;;5127650;27;20138;-64
2022/04/25 12:33:25;;;;;;;17.13;12.55;;;;;;;;;;5128161;27;20557;-64
2022/04/25 12:36:09;;;;;;;15.82;11.45;;;;;;;;;;5128575;27;20055;-64
2022/04/25 12:38:41;;;;;;;18.13;12.52;;;;;;;;;;5127640;27;20050;-64
2022/04/25 12:41:09;;;;;;;15.95;11.13;;;;;;;;;;5127697;27;20044;-64
2022/04/25 12:43:42;;;;;;;16.40;11.13;;;;;;;;;;5127810;27;20768;-64
2022/04/25 12:46:09;;;;;;;15.27;10.93;;;;;;;;;;5117927;27;20482;-64
2022/04/25 12:48:57;;;;;;;13.50;9.73;;;;;;;;;;5107036;28;20048;-63
2022/04/25 12:51:29;;;;;;;19.33;12.48;;;;;;;;;;5120734;28;20040;-65
2022/04/25 12:53:56;;;;;;;14.15;10.63;;;;;;;;;;5127344;27;20130;-64
2022/04/25 12:56:24;;;;;;;16.48;10.88;;;;;;;;;;5127534;27;20043;-64
2022/04/25 12:58:51;;;;;;;15.43;10.73;;;;;;;;;;5127247;27;20051;-64
2022/04/25 13:01:35;;;;;;;14.68;11.55;;;;;;;;;;5127359;27;20047;-64
2022/04/25 13:04:08;;;;;;;15.95;11.02;;;;;;;;;;5125695;27;20059;-64
2022/04/25 13:06:37;;;;;;;16.50;11.35;;;;;;;;;;5127428;27;20568;-63
2022/04/25 13:09:05;;;;;;;15.93;12.45;;;;;;;;;;5127165;27;20051;-63
2022/04/25 13:11:32;;;;;;;18.20;13.57;;;;;;;;;;5126867;27;20051;-64
2022/04/25 13:14:02;;;;;;;14.65;11.23;;;;;;;;;;5113880;27;20127;-64
2022/04/25 13:16:30;;;;;;;17.05;12.10;;;;;;;;;;5113282;28;20055;-64
2022/04/25 13:18:57;;;;;;;18.85;12.27;;;;;;;;;;5113208;28;20113;-63
2022/04/25 13:21:26;;;;;;;15.23;11.75;;;;;;;;;;5113218;28;20040;-64
2022/04/25 13:23:53;;;;;;;12.90;10.45;;;;;;;;;;5113703;28;20055;-63
2022/04/25 13:26:21;;;;;;;15.07;11.02;;;;;;;;;;5113494;28;20278;-64
2022/04/25 13:28:49;;;;;;;15.65;12.25;;;;;;;;;;5113031;28;20048;-63
2022/04/25 13:31:16;;;;;;;14.32;11.23;;;;;;;;;;5112917;28;20075;-64
2022/04/25 13:33:43;;;;;;;16.45;12.23;;;;;;;;;;5113052;28;20040;-64
2022/04/25 13:36:10;;;;;;;17.40;12.73;;;;;;;;;;5094182;28;20477;-64
2022/04/25 13:38:39;;;;;;;17.58;12.25;;;;;;;;;;5092247;28;20580;-63
2022/04/25 13:41:06;;;;;;;15.27;12.05;;;;;;;;;;5092109;28;20051;-64
2022/04/25 13:43:33;;;;;;;13.10;10.93;;;;;;;;;;5107922;28;20122;-64
2022/04/25 13:46:01;;;;;;;14.32;10.27;;;;;;;;;;5112857;28;20062;-64
2022/04/25 13:48:29;;;;;;;14.68;10.32;;;;;;;;;;5112989;28;20043;-63
2022/04/25 13:50:55;;;;;;;16.20;12.65;;;;;;;;;;5113089;28;20077;-64
2022/04/25 13:53:23;;;;;;;13.93;11.32;;;;;;;;;;5113002;28;20420;-64
2022/04/25 13:55:51;;;;;;;13.32;10.50;;;;;;;;;;5112848;28;20051;-64
2022/04/25 13:58:18;;;;;;;15.48;12.30;;;;;;;;;;5102569;28;20241;-63
2022/04/25 14:00:45;;;;;;;15.43;12.27;;;;;;;;;;5103032;28;20043;-64
2022/04/25 14:03:13;;;;;;;15.63;12.18;;;;;;;;;;5112651;28;20054;-63
2022/04/25 14:05:42;;;;;;;14.68;11.23;;;;;;;;;;5112468;28;20408;-65
2022/04/25 14:08:10;;;;;;;12.65;10.23;;;;;;;;;;5112429;28;20048;-62
2022/04/25 14:10:39;;;;;;;13.07;10.52;;;;;;;;;;5112376;28;20051;-63
2022/04/25 14:13:08;;;;;;;12.98;10.35;;;;;;;;;;5112214;28;20051;-63
2022/04/25 14:15:37;;;;;;;14.27;11.57;;;;;;;;;;5112360;28;20050;-64
2022/04/25 14:18:05;;;;;;;14.68;10.88;;;;;;;;;;5112151;28;20408;-63
2022/04/25 14:20:33;;;;;;;15.55;11.57;;;;;;;;;;5112180;28;20047;-64
2022/04/25 14:23:00;;;;;;;16.67;11.57;;;;;;;;;;5112281;28;20047;-64
2022/04/25 14:25:28;;;;;;;16.63;12.20;;;;;;;;;;5111373;28;20476;-64
2022/04/25 14:27:57;;;;;;;16.25;13.05;;;;;;;;;;5111621;28;20048;-64
2022/04/25 14:30:26;;;;;;;16.15;11.95;;;;;;;;;;5111493;28;20047;-64
2022/04/25 14:32:54;;;;;;;15.48;11.98;;;;;;;;;;5111782;28;20101;-64
2022/04/25 14:35:21;;;;;;;15.80;12.15;;;;;;;;;;5111556;27;20044;-64
2022/04/25 14:37:49;;;;;;;15.13;11.07;;;;;;;;;;5112406;28;20550;-64
2022/04/25 14:40:16;;;;;;;15.18;10.88;;;;;;;;;;5111798;28;20044;-64
2022/04/25 14:42:43;;;;;;;14.70;10.57;;;;;;;;;;5112104;28;20048;-64
2022/04/25 14:45:10;;;;;;;15.35;11.23;;;;;;;;;;5111519;28;20054;-64
2022/04/25 14:47:41;;;;;;;15.15;11.48;;;;;;;;;;5111407;28;20122;-64
2022/04/25 14:55:38;;;;;;;14.10;11.05;;;;;;;;;;5111017;28;20564;-64
2022/04/25 14:58:06;;;;;;;18.13;11.93;;;;;;;;;;5111116;28;20044;-65
2022/04/25 15:00:33;;;;;;;13.75;10.82;;;;;;;;;;5111506;28;20102;-64
2022/04/25 15:03:02;;;;;;;14.32;10.15;;;;;;;;;;5111660;28;20048;-63
2022/04/25 15:05:29;;;;;;;13.38;9.77;;;;;;;;;;5111573;28;20043;-64
2022/04/25 15:07:56;;;;;;;12.30;9.25;;;;;;;;;;5111243;28;20058;-64
2022/04/25 15:10:24;;;;;;;14.07;10.65;;;;;;;;;;5111004;28;20055;-63
2022/04/25 15:12:51;;;;;;;16.98;11.30;;;;;;;;;;5111110;28;20052;-63
2022/04/25 15:15:18;;;;;;;13.68;10.20;;;;;;;;;;5110620;28;20059;-63
2022/04/25 15:17:45;;;;;;;13.52;10.57;;;;;;;;;;5110861;28;20040;-63
2022/04/25 15:20:13;;;;;;;15.45;11.48;;;;;;;;;;5110479;28;20141;-63